Pombinho — CUKX3 — position and weather

sailwx.info

Track history (hours):
 
Tides and Currents Weather Stations Pressure Air Temp Water Temp Dewpoint Dewpoint Depression Visibility Wind Speed Wind Dir Waves Ship Positions

Pombinho

Last reported at 2017-Dec-07 10:45 UTC. Time now 2017-Dec-15 00:38 UTC.
Position N 38°26' W 009°07'.

Length 23 m.

Type: Fishing. MMSI: 263500177.

Date/timePositionNaut miles runAvg speedWind from/ knotsBaromVisibWave heightAir tempDewpointWater temp
2017-Dec-07 10:45N 38°26' W 009°07'0 0.1
2017-Dec-07 10:29N 38°26' W 009°07'0 0.0
2017-Dec-07 10:00N 38°26' W 009°07'0 0.0
2017-Dec-07 09:30N 38°26' W 009°07'0 0.7
2017-Dec-07 09:01N 38°26' W 009°07'4 8.3
2017-Dec-07 08:30N 38°24' W 009°12'3 6.9
2017-Dec-07 08:00N 38°27' W 009°14'4 8.4
2017-Dec-07 07:30N 38°31' W 009°15'1 1.1
2017-Dec-07 07:00N 38°32' W 009°15'0 0.6
2017-Dec-07 06:29N 38°32' W 009°15'0 0.7
2017-Dec-07 05:58N 38°32' W 009°15'0 0.6
2017-Dec-07 05:30N 38°32' W 009°14'0 0.5
2017-Dec-07 05:00N 38°33' W 009°14'0 0.0
2017-Dec-07 04:30N 38°33' W 009°14'0 0.0
2017-Dec-07 04:00N 38°33' W 009°14'1 1.3
2017-Dec-07 03:27N 38°32' W 009°14'3 7.1
2017-Dec-07 03:01N 38°29' W 009°14'4 8.5
2017-Dec-07 02:31N 38°25' W 009°13'4 8.3
2017-Dec-07 02:00N 38°26' W 009°08'1 2.6
2017-Dec-07 01:30N 38°26' W 009°07'0 0.3
2017-Dec-07 01:01N 38°26' W 009°07'  
2017-Dec-04 10:24N 38°21' W 008°51'0 0.1
2017-Dec-04 09:02N 38°21' W 008°51'0 0.4
2017-Dec-04 08:54N 38°21' W 008°51'0 0.2
2017-Dec-04 08:30N 38°21' W 008°51'0 0.3
2017-Dec-04 07:30N 38°21' W 008°50'1 1.9
2017-Dec-04 07:00N 38°21' W 008°50'0 0.5
2017-Dec-04 06:28N 38°22' W 008°50'2 5.0
2017-Dec-04 06:00N 38°23' W 008°52'4 8.1
2017-Dec-04 05:30N 38°25' W 008°57'4 8.6
2017-Dec-04 05:00N 38°26' W 009°02'4 7.3
2017-Dec-04 04:30N 38°26' W 009°07'0 0.0
2017-Dec-04 04:00N 38°26' W 009°07'  
2017-Nov-30 17:42N 38°26' W 009°07'0 0.0
2017-Nov-30 17:30N 38°26' W 009°07'0 0.0
2017-Nov-30 17:00N 38°26' W 009°07'0 0.0
2017-Nov-30 16:30N 38°26' W 009°07'3 6.6
2017-Nov-30 16:00N 38°25' W 009°03'4 8.3
2017-Nov-30 15:30N 38°22' W 008°59'4 8.3
2017-Nov-30 15:00N 38°20' W 008°54'4 8.1
2017-Nov-30 14:29N 38°18' W 008°50'0 0.5
2017-Nov-30 14:00N 38°18' W 008°50'0 0.8
2017-Nov-30 13:29N 38°18' W 008°50'0 0.3
2017-Nov-30 12:59N 38°19' W 008°50'0 0.2
2017-Nov-30 11:07N 38°19' W 008°50'0 0.8
2017-Nov-30 11:00N 38°19' W 008°50'0 0.8
2017-Nov-30 10:30N 38°19' W 008°50'0 0.9
2017-Nov-30 10:00N 38°20' W 008°50'0 0.8
2017-Nov-30 09:30N 38°20' W 008°50'0 0.1
2017-Nov-30 08:17N 38°20' W 008°50'3 3.9
2017-Nov-30 07:38N 38°22' W 008°52'0 1.2
2017-Nov-30 07:30N 38°22' W 008°52'4 3.7
2017-Nov-30 06:27N 38°20' W 008°48'3 5.7
2017-Nov-30 06:00N 38°19' W 008°51'4 8.5
2017-Nov-30 05:30N 38°21' W 008°55'4 8.6
2017-Nov-30 05:00N 38°23' W 008°60'4 8.6
2017-Nov-30 04:30N 38°26' W 009°05'2 3.7
2017-Nov-30 04:00N 38°26' W 009°07'0 0.0
2017-Nov-29 14:20N 38°26' W 009°07'2 6.2
2017-Nov-29 14:00N 38°26' W 009°04'4 8.8
2017-Nov-29 13:30N 38°26' W 008°58'8 6.1
2017-Nov-29 12:14N 38°21' W 008°51'0 0.2
2017-Nov-29 09:53N 38°21' W 008°51'2 5.6
2017-Nov-29 09:30N 38°19' W 008°49'3 4.7
2017-Nov-29 08:46N 38°22' W 008°52'0 0.7
2017-Nov-29 08:18N 38°22' W 008°52'8 2.0
2017-Nov-29 04:20N 38°15' W 008°50'3 8.2
2017-Nov-29 04:00N 38°12' W 008°50'3 5.8
2017-Nov-29 03:30N 38°14' W 008°47'4 6.8
2017-Nov-29 02:58N 38°18' W 008°50'8 6.0
2017-Nov-29 01:42N 38°25' W 008°53'2 7.7
2017-Nov-29 01:30N 38°25' W 008°55'4 7.9
2017-Nov-29 01:00N 38°25' W 008°60'4 8.0
2017-Nov-29 00:30N 38°26' W 009°05'1 0.1
2017-Nov-28 11:23N 38°26' W 009°07'0 0.0
2017-Nov-28 04:29N 38°26' W 009°07'0 0.0
2017-Nov-28 03:47N 38°26' W 009°07'0 0.0
2017-Nov-28 03:24N 38°26' W 009°07'0 0.0
2017-Nov-27 13:25N 38°26' W 009°07'0 0.0
2017-Nov-27 12:59N 38°26' W 009°07'0 0.0
2017-Nov-27 12:30N 38°26' W 009°07'0 0.4
2017-Nov-27 12:00N 38°26' W 009°06'4 8.6
2017-Nov-27 11:30N 38°25' W 009°01'  
Track history (hours):
 
Tides and Currents Weather Stations Pressure Air Temp Water Temp Dewpoint Dewpoint Depression Visibility Wind Speed Wind Dir Waves Ship Positions

Pombinho

Last reported at 2017-Dec-07 10:45 UTC. Time now 2017-Dec-15 00:38 UTC.
Position N 38°26' W 009°07'.

Length 23 m.

Type: Fishing. MMSI: 263500177.

Date/timePositionNaut miles runAvg speedWind from/ knotsBaromVisibWave heightAir tempDewpointWater temp
2017-Dec-07 10:45N 38°26' W 009°07'0 0.1
2017-Dec-07 10:29N 38°26' W 009°07'0 0.0
2017-Dec-07 10:00N 38°26' W 009°07'0 0.0
2017-Dec-07 09:30N 38°26' W 009°07'0 0.7
2017-Dec-07 09:01N 38°26' W 009°07'4 8.3
2017-Dec-07 08:30N 38°24' W 009°12'3 6.9
2017-Dec-07 08:00N 38°27' W 009°14'4 8.4
2017-Dec-07 07:30N 38°31' W 009°15'1 1.1
2017-Dec-07 07:00N 38°32' W 009°15'0 0.6
2017-Dec-07 06:29N 38°32' W 009°15'0 0.7
2017-Dec-07 05:58N 38°32' W 009°15'0 0.6
2017-Dec-07 05:30N 38°32' W 009°14'0 0.5
2017-Dec-07 05:00N 38°33' W 009°14'0 0.0
2017-Dec-07 04:30N 38°33' W 009°14'0 0.0
2017-Dec-07 04:00N 38°33' W 009°14'1 1.3
2017-Dec-07 03:27N 38°32' W 009°14'3 7.1
2017-Dec-07 03:01N 38°29' W 009°14'4 8.5
2017-Dec-07 02:31N 38°25' W 009°13'4 8.3
2017-Dec-07 02:00N 38°26' W 009°08'1 2.6
2017-Dec-07 01:30N 38°26' W 009°07'0 0.3
2017-Dec-07 01:01N 38°26' W 009°07'  
2017-Dec-04 10:24N 38°21' W 008°51'0 0.1
2017-Dec-04 09:02N 38°21' W 008°51'0 0.4
2017-Dec-04 08:54N 38°21' W 008°51'0 0.2
2017-Dec-04 08:30N 38°21' W 008°51'0 0.3
2017-Dec-04 07:30N 38°21' W 008°50'1 1.9
2017-Dec-04 07:00N 38°21' W 008°50'0 0.5
2017-Dec-04 06:28N 38°22' W 008°50'2 5.0
2017-Dec-04 06:00N 38°23' W 008°52'4 8.1
2017-Dec-04 05:30N 38°25' W 008°57'4 8.6
2017-Dec-04 05:00N 38°26' W 009°02'4 7.3
2017-Dec-04 04:30N 38°26' W 009°07'0 0.0
2017-Dec-04 04:00N 38°26' W 009°07'  
2017-Nov-30 17:42N 38°26' W 009°07'0 0.0
2017-Nov-30 17:30N 38°26' W 009°07'0 0.0
2017-Nov-30 17:00N 38°26' W 009°07'0 0.0
2017-Nov-30 16:30N 38°26' W 009°07'3 6.6
2017-Nov-30 16:00N 38°25' W 009°03'4 8.3
2017-Nov-30 15:30N 38°22' W 008°59'4 8.3
2017-Nov-30 15:00N 38°20' W 008°54'4 8.1
2017-Nov-30 14:29N 38°18' W 008°50'0 0.5
2017-Nov-30 14:00N 38°18' W 008°50'0 0.8
2017-Nov-30 13:29N 38°18' W 008°50'0 0.3
2017-Nov-30 12:59N 38°19' W 008°50'0 0.2
2017-Nov-30 11:07N 38°19' W 008°50'0 0.8
2017-Nov-30 11:00N 38°19' W 008°50'0 0.8
2017-Nov-30 10:30N 38°19' W 008°50'0 0.9
2017-Nov-30 10:00N 38°20' W 008°50'0 0.8
2017-Nov-30 09:30N 38°20' W 008°50'0 0.1
2017-Nov-30 08:17N 38°20' W 008°50'3 3.9
2017-Nov-30 07:38N 38°22' W 008°52'0 1.2
2017-Nov-30 07:30N 38°22' W 008°52'4 3.7
2017-Nov-30 06:27N 38°20' W 008°48'3 5.7
2017-Nov-30 06:00N 38°19' W 008°51'4 8.5
2017-Nov-30 05:30N 38°21' W 008°55'4 8.6
2017-Nov-30 05:00N 38°23' W 008°60'4 8.6
2017-Nov-30 04:30N 38°26' W 009°05'2 3.7
2017-Nov-30 04:00N 38°26' W 009°07'0 0.0
2017-Nov-29 14:20N 38°26' W 009°07'2 6.2
2017-Nov-29 14:00N 38°26' W 009°04'4 8.8
2017-Nov-29 13:30N 38°26' W 008°58'8 6.1
2017-Nov-29 12:14N 38°21' W 008°51'0 0.2
2017-Nov-29 09:53N 38°21' W 008°51'2 5.6
2017-Nov-29 09:30N 38°19' W 008°49'3 4.7
2017-Nov-29 08:46N 38°22' W 008°52'0 0.7
2017-Nov-29 08:18N 38°22' W 008°52'8 2.0
2017-Nov-29 04:20N 38°15' W 008°50'3 8.2
2017-Nov-29 04:00N 38°12' W 008°50'3 5.8
2017-Nov-29 03:30N 38°14' W 008°47'4 6.8
2017-Nov-29 02:58N 38°18' W 008°50'8 6.0
2017-Nov-29 01:42N 38°25' W 008°53'2 7.7
2017-Nov-29 01:30N 38°25' W 008°55'4 7.9
2017-Nov-29 01:00N 38°25' W 008°60'4 8.0
2017-Nov-29 00:30N 38°26' W 009°05'1 0.1
2017-Nov-28 11:23N 38°26' W 009°07'0 0.0
2017-Nov-28 04:29N 38°26' W 009°07'0 0.0
2017-Nov-28 03:47N 38°26' W 009°07'0 0.0
2017-Nov-28 03:24N 38°26' W 009°07'0 0.0
2017-Nov-27 13:25N 38°26' W 009°07'0 0.0
2017-Nov-27 12:59N 38°26' W 009°07'0 0.0
2017-Nov-27 12:30N 38°26' W 009°07'0 0.4
2017-Nov-27 12:00N 38°26' W 009°06'4 8.6
2017-Nov-27 11:30N 38°25' W 009°01'  

Dump ship's entire track history